Time,TemperatureF,DewpointF,PressureIn,WindDirection,WindDirectionDegrees,WindSpeedMPH,WindSpeedGustMPH,Humidity,HourlyPrecipIn,Conditions,Clouds,dailyrainin,SoftwareType,DateUTC
2013-03-04 00:07:00,45.0,43.0,30.03,SW,216,0.0,1.0,93,0.00,,,0.00,weatherlink.com 1.10,2013-03-04 08:07:00,
2013-03-04 00:22:00,44.7,43.0,30.04,WSW,240,0.0,1.0,93,0.00,,,0.00,weatherlink.com 1.10,2013-03-04 08:22:00,
2013-03-04 00:37:00,45.7,44.0,30.05,NE,37,2.0,4.0,93,0.00,,,0.00,weatherlink.com 1.10,2013-03-04 08:37:00,
2013-03-04 01:07:00,47.0,45.0,30.05,North,1,0.0,2.0,91,0.00,,,0.00,weatherlink.com 1.10,2013-03-04 09:07:00,
2013-03-04 01:22:00,47.2,45.0,30.05,NNW,334,0.0,0.0,91,0.00,,,0.00,weatherlink.com 1.10,2013-03-04 09:22:00,
2013-03-04 01:37:00,46.6,44.0,30.05,NNW,334,0.0,0.0,90,0.00,,,0.00,weatherlink.com 1.10,2013-03-04 09:37:00,
2013-03-04 01:52:00,45.6,43.0,30.05,NNW,333,0.0,1.0,91,0.00,,,0.00,weatherlink.com 1.10,2013-03-04 09:52:00,
2013-03-04 02:07:00,45.6,44.0,30.06,NNW,333,0.0,0.0,93,0.00,,,0.00,weatherlink.com 1.10,2013-03-04 10:07:00,
2013-03-04 02:22:00,46.2,44.0,30.06,NNW,333,0.0,0.0,93,0.00,,,0.00,weatherlink.com 1.10,2013-03-04 10:22:00,
2013-03-04 02:37:00,46.9,45.0,30.06,NE,56,0.0,2.0,92,0.00,,,0.00,weatherlink.com 1.10,2013-03-04 10:37:00,
2013-03-04 02:52:00,47.2,45.0,30.06,NNE,23,0.0,2.0,91,0.00,,,0.00,weatherlink.com 1.10,2013-03-04 10:52:00,
2013-03-04 03:07:00,47.1,44.0,30.05,NNE,26,0.0,1.0,90,0.00,,,0.00,weatherlink.com 1.10,2013-03-04 11:07:00,
2013-03-04 03:22:00,47.2,45.0,30.05,NNE,30,0.0,3.0,91,0.00,,,0.00,weatherlink.com 1.10,2013-03-04 11:22:00,
2013-03-04 03:37:00,47.2,45.0,30.05,NNE,30,0.0,0.0,91,0.00,,,0.00,weatherlink.com 1.10,2013-03-04 11:37:00,
2013-03-04 03:52:00,47.1,45.0,30.06,NE,39,0.0,2.0,91,0.00,,,0.00,weatherlink.com 1.10,2013-03-04 11:52:00,
2013-03-04 04:07:00,47.0,45.0,30.06,ENE,58,0.0,4.0,91,0.00,,,0.00,weatherlink.com 1.10,2013-03-04 12:07:00,
2013-03-04 04:22:00,47.2,45.0,30.06,NNE,25,0.0,3.0,91,0.00,,,0.00,weatherlink.com 1.10,2013-03-04 12:22:00,
2013-03-04 04:37:00,47.4,45.0,30.06,ENE,70,0.0,3.0,91,0.00,,,0.00,weatherlink.com 1.10,2013-03-04 12:37:00,
2013-03-04 04:52:00,47.4,45.0,30.06,NE,47,0.0,2.0,90,0.00,,,0.00,weatherlink.com 1.10,2013-03-04 12:52:00,
2013-03-04 05:07:00,47.4,45.0,30.06,NE,34,0.0,1.0,90,0.00,,,0.00,weatherlink.com 1.10,2013-03-04 13:07:00,
2013-03-04 05:22:00,47.3,45.0,30.07,ENE,63,1.0,1.0,90,0.00,,,0.00,weatherlink.com 1.10,2013-03-04 13:22:00,
2013-03-04 05:37:00,47.3,45.0,30.07,ESE,108,0.0,1.0,90,0.00,,,0.00,weatherlink.com 1.10,2013-03-04 13:37:00,
2013-03-04 05:52:00,47.1,44.0,30.07,NE,39,1.0,2.0,90,0.00,,,0.00,weatherlink.com 1.10,2013-03-04 13:52:00,
2013-03-04 06:07:00,47.1,44.0,30.08,ENE,72,0.0,3.0,90,0.00,,,0.00,weatherlink.com 1.10,2013-03-04 14:07:00,
2013-03-04 06:22:00,47.1,44.0,30.08,East,79,0.0,1.0,90,0.00,,,0.00,weatherlink.com 1.10,2013-03-04 14:22:00,
2013-03-04 06:37:00,47.1,44.0,30.07,North,7,0.0,1.0,90,0.00,,,0.00,weatherlink.com 1.10,2013-03-04 14:37:00,
2013-03-04 06:52:00,47.0,44.0,30.07,North,1,0.0,2.0,90,0.00,,,0.00,weatherlink.com 1.10,2013-03-04 14:52:00,
2013-03-04 07:07:00,47.0,44.0,30.08,ENE,59,0.0,1.0,90,0.00,,,0.00,weatherlink.com 1.10,2013-03-04 15:07:00,
2013-03-04 07:23:00,47.1,44.0,30.09,East,85,1.0,2.0,90,0.00,,,0.00,weatherlink.com 1.10,2013-03-04 15:23:00,
2013-03-04 07:38:00,47.0,44.0,30.09,NE,43,0.0,2.0,90,0.00,,,0.00,weatherlink.com 1.10,2013-03-04 15:38:00,
2013-03-04 07:53:00,47.2,44.0,30.10,North,358,2.0,3.0,89,0.00,,,0.00,weatherlink.com 1.10,2013-03-04 15:53:00,
2013-03-04 08:08:00,47.3,44.0,30.10,NE,44,0.0,4.0,88,0.00,,,0.00,weatherlink.com 1.10,2013-03-04 16:08:00,
2013-03-04 08:23:00,47.8,45.0,30.10,South,181,0.0,3.0,88,0.00,,,0.00,weatherlink.com 1.10,2013-03-04 16:23:00,
2013-03-04 08:38:00,47.9,45.0,30.11,NNW,342,0.0,3.0,88,0.00,,,0.00,weatherlink.com 1.10,2013-03-04 16:38:00,
2013-03-04 08:53:00,48.0,44.0,30.11,East,84,0.0,5.0,87,0.00,,,0.00,weatherlink.com 1.10,2013-03-04 16:53:00,
2013-03-04 09:08:00,48.3,45.0,30.11,NNE,31,0.0,2.0,87,0.00,,,0.00,weatherlink.com 1.10,2013-03-04 17:08:00,
2013-03-04 09:23:00,48.8,45.0,30.11,NNW,347,0.0,3.0,85,0.00,,,0.00,weatherlink.com 1.10,2013-03-04 17:23:00,
2013-03-04 09:38:00,49.2,45.0,30.11,North,355,0.0,4.0,85,0.00,,,0.00,weatherlink.com 1.10,2013-03-04 17:38:00,
2013-03-04 09:53:00,49.6,45.0,30.11,NNW,333,1.0,4.0,84,0.00,,,0.00,weatherlink.com 1.10,2013-03-04 17:53:00,
2013-03-04 10:08:00,50.0,45.0,30.11,NNW,347,1.0,4.0,83,0.00,,,0.00,weatherlink.com 1.10,2013-03-04 18:08:00,
2013-03-04 10:23:00,50.6,45.0,30.10,NNE,12,0.0,2.0,82,0.00,,,0.00,weatherlink.com 1.10,2013-03-04 18:23:00,
2013-03-04 10:38:00,51.1,45.0,30.11,NNW,344,0.0,5.0,81,0.00,,,0.00,weatherlink.com 1.10,2013-03-04 18:38:00,
2013-03-04 10:53:00,51.8,46.0,30.10,SSE,165,0.0,2.0,79,0.00,,,0.00,weatherlink.com 1.10,2013-03-04 18:53:00,
2013-03-04 11:08:00,53.2,46.0,30.11,North,356,2.0,3.0,77,0.00,,,0.00,weatherlink.com 1.10,2013-03-04 19:08:00,
2013-03-04 11:23:00,53.0,46.0,30.11,North,1,0.0,4.0,77,0.00,,,0.00,weatherlink.com 1.10,2013-03-04 19:23:00,
2013-03-04 11:38:00,54.1,46.0,30.11,SSE,162,2.0,3.0,75,0.00,,,0.00,weatherlink.com 1.10,2013-03-04 19:38:00,
2013-03-04 11:53:00,54.7,46.0,30.11,ENE,70,0.0,4.0,73,0.00,,,0.00,weatherlink.com 1.10,2013-03-04 19:53:00,
2013-03-04 12:08:00,56.0,46.0,30.10,NNE,33,2.0,4.0,70,0.00,,,0.00,weatherlink.com 1.10,2013-03-04 20:08:00,
2013-03-04 12:23:00,56.7,46.0,30.09,NNW,340,0.0,5.0,68,0.00,,,0.00,weatherlink.com 1.10,2013-03-04 20:23:00,
2013-03-04 12:38:00,58.0,46.0,30.08,West,260,0.0,4.0,65,0.00,,,0.00,weatherlink.com 1.10,2013-03-04 20:38:00,
2013-03-04 12:53:00,59.3,46.0,30.07,SSE,154,0.0,2.0,62,0.00,,,0.00,weatherlink.com 1.10,2013-03-04 20:53:00,
2013-03-04 13:08:00,59.8,47.0,30.06,WSW,257,0.0,3.0,62,0.00,,,0.00,weatherlink.com 1.10,2013-03-04 21:08:00,
2013-03-04 13:24:00,61.6,47.0,30.05,South,184,0.0,2.0,59,0.00,,,0.00,weatherlink.com 1.10,2013-03-04 21:24:00,
2013-03-04 13:39:00,62.7,47.0,30.04,SSE,162,0.0,3.0,56,0.00,,,0.00,weatherlink.com 1.10,2013-03-04 21:39:00,
2013-03-04 13:54:00,62.5,46.0,30.04,NNE,20,0.0,4.0,56,0.00,,,0.00,weatherlink.com 1.10,2013-03-04 21:54:00,
2013-03-04 14:09:00,63.7,47.0,30.03,SSW,200,0.0,1.0,54,0.00,,,0.00,weatherlink.com 1.10,2013-03-04 22:09:00,
2013-03-04 14:24:00,64.6,47.0,30.04,NE,44,0.0,4.0,53,0.00,,,0.00,weatherlink.com 1.10,2013-03-04 22:24:00,
2013-03-04 14:39:00,63.7,45.0,30.04,ENE,64,1.0,6.0,51,0.00,,,0.00,weatherlink.com 1.10,2013-03-04 22:39:00,
2013-03-04 14:54:00,62.9,46.0,30.03,North,1,2.0,5.0,54,0.00,,,0.00,weatherlink.com 1.10,2013-03-04 22:54:00,
2013-03-04 15:09:00,60.2,45.0,30.04,North,2,0.0,5.0,57,0.00,,,0.00,weatherlink.com 1.10,2013-03-04 23:09:00,
2013-03-04 15:24:00,57.8,43.0,30.04,North,8,0.0,8.0,59,0.00,,,0.00,weatherlink.com 1.10,2013-03-04 23:24:00,
2013-03-04 15:39:00,57.7,43.0,30.04,ENE,59,0.0,6.0,59,0.00,,,0.00,weatherlink.com 1.10,2013-03-04 23:39:00,
2013-03-04 15:54:00,57.0,43.0,30.03,ESE,118,2.0,7.0,60,0.00,,,0.00,weatherlink.com 1.10,2013-03-04 23:54:00,
2013-03-04 16:09:00,56.6,43.0,30.03,NNW,330,1.0,5.0,60,0.00,,,0.00,weatherlink.com 1.10,2013-03-05 00:09:00,
2013-03-04 16:24:00,55.1,42.0,30.03,NNE,16,0.0,5.0,62,0.00,,,0.00,weatherlink.com 1.10,2013-03-05 00:24:00,
2013-03-04 16:39:00,54.2,42.0,30.03,North,358,0.0,6.0,63,0.00,,,0.00,weatherlink.com 1.10,2013-03-05 00:39:00,
2013-03-04 16:54:00,53.0,41.0,30.03,NE,47,0.0,8.0,65,0.00,,,0.00,weatherlink.com 1.10,2013-03-05 00:54:00,
2013-03-04 17:09:00,52.2,41.0,30.03,North,11,0.0,4.0,66,0.00,,,0.00,weatherlink.com 1.10,2013-03-05 01:09:00,
2013-03-04 17:24:00,51.8,41.0,30.03,NE,37,0.0,4.0,68,0.00,,,0.00,weatherlink.com 1.10,2013-03-05 01:24:00,
2013-03-04 17:39:00,50.9,41.0,30.02,East,90,0.0,1.0,69,0.00,,,0.00,weatherlink.com 1.10,2013-03-05 01:39:00,
2013-03-04 17:54:00,49.8,41.0,30.02,NNE,30,0.0,2.0,72,0.00,,,0.00,weatherlink.com 1.10,2013-03-05 01:54:00,
2013-03-04 18:09:00,49.1,41.0,30.02,NE,42,0.0,2.0,74,0.00,,,0.00,weatherlink.com 1.10,2013-03-05 02:09:00,
2013-03-04 18:25:00,48.2,41.0,30.03,ENE,68,1.0,4.0,76,0.00,,,0.00,weatherlink.com 1.10,2013-03-05 02:25:00,
2013-03-04 18:39:00,47.2,40.0,30.03,NNE,29,0.0,2.0,77,0.00,,,0.00,weatherlink.com 1.10,2013-03-05 02:39:00,
2013-03-04 18:54:00,46.8,41.0,30.03,NE,48,0.0,3.0,79,0.00,,,0.00,weatherlink.com 1.10,2013-03-05 02:54:00,
2013-03-04 19:09:00,46.4,40.0,30.03,ENE,64,1.0,3.0,79,0.00,,,0.00,weatherlink.com 1.10,2013-03-05 03:09:00,
2013-03-04 19:24:00,45.9,40.0,30.03,ENE,78,0.0,3.0,80,0.00,,,0.00,weatherlink.com 1.10,2013-03-05 03:24:00,
2013-03-04 19:39:00,45.7,40.0,30.03,ESE,118,0.0,3.0,81,0.00,,,0.00,weatherlink.com 1.10,2013-03-05 03:39:00,
2013-03-04 19:54:00,45.4,40.0,30.02,ENE,68,0.0,1.0,81,0.00,,,0.00,weatherlink.com 1.10,2013-03-05 03:54:00,
2013-03-04 20:09:00,44.9,40.0,30.03,South,184,0.0,1.0,82,0.00,,,0.00,weatherlink.com 1.10,2013-03-05 04:09:00,
2013-03-04 20:24:00,44.3,39.0,30.03,SSE,159,0.0,0.0,82,0.00,,,0.00,weatherlink.com 1.10,2013-03-05 04:24:00,
2013-03-04 20:39:00,43.8,39.0,30.03,SSE,162,0.0,1.0,83,0.00,,,0.00,weatherlink.com 1.10,2013-03-05 04:39:00,
2013-03-04 20:54:00,43.3,39.0,30.03,ENE,72,0.0,1.0,86,0.00,,,0.00,weatherlink.com 1.10,2013-03-05 04:54:00,
2013-03-04 21:09:00,43.7,40.0,30.04,SE,126,0.0,1.0,85,0.00,,,0.00,weatherlink.com 1.10,2013-03-05 05:09:00,
2013-03-04 21:24:00,43.7,39.0,30.04,North,360,0.0,0.0,84,0.00,,,0.00,weatherlink.com 1.10,2013-03-05 05:24:00,
2013-03-04 21:39:00,43.0,39.0,30.04,South,190,0.0,2.0,86,0.00,,,0.00,weatherlink.com 1.10,2013-03-05 05:39:00,
2013-03-04 21:54:00,43.6,40.0,30.04,North,349,0.0,1.0,87,0.00,,,0.00,weatherlink.com 1.10,2013-03-05 05:54:00,
2013-03-04 22:09:00,43.4,40.0,30.04,East,99,0.0,1.0,87,0.00,,,0.00,weatherlink.com 1.10,2013-03-05 06:09:00,
2013-03-04 22:24:00,42.8,39.0,30.03,SE,126,0.0,1.0,86,0.00,,,0.00,weatherlink.com 1.10,2013-03-05 06:24:00,
2013-03-04 22:39:00,41.9,39.0,30.03,SSE,155,0.0,0.0,89,0.00,,,0.00,weatherlink.com 1.10,2013-03-05 06:39:00,
2013-03-04 22:54:00,42.3,39.0,30.04,East,85,0.0,1.0,88,0.00,,,0.00,weatherlink.com 1.10,2013-03-05 06:54:00,
2013-03-04 23:09:00,41.9,39.0,30.03,South,171,0.0,0.0,88,0.00,,,0.00,weatherlink.com 1.10,2013-03-05 07:09:00,
2013-03-04 23:24:00,41.1,38.0,30.03,SSW,192,0.0,0.0,89,0.00,,,0.00,weatherlink.com 1.10,2013-03-05 07:24:00,
2013-03-04 23:39:00,40.5,38.0,30.03,SSW,192,0.0,0.0,90,0.00,,,0.00,weatherlink.com 1.10,2013-03-05 07:39:00,
2013-03-04 23:54:00,39.6,37.0,30.02,SSW,192,0.0,0.0,91,0.00,,,0.00,weatherlink.com 1.10,2013-03-05 07:54:00,